Flight Track Log - Related Links

Times and Time Zones

All times are in EDT time to prevent confusion due to time zone crossing. See the FLG3667 flight status page for this flight to view local times or setup timezone preferences in your user account.

Time Position Orientation Groundspeed Altitude Reporting Facility
EDT Latitude Longitude Course Direction KTS MPH feet Rate Location/Type
Thu 04:00:51 PM 42.2036 -83.3556 285° West 158 182 1,300  Level Cleveland Center
Thu 04:01:28 PM 42.1864 -83.3828 230° Southwest 193 222 2,600 2,935 Climbing Cleveland Center
Thu 04:02:23 PM 42.1497 -83.4286 223° Southwest 202 232 5,800 2,897 Climbing Cleveland Center
Thu 04:03:24 PM 42.1458 -83.5069 266° West 248 285 8,200 1,969 Climbing Cleveland Center
Thu 04:04:00 PM 42.3102 -83.7640 294° West  Level FlightAware Approximate
Thu 04:04:31 PM 42.1869 -83.6069 299° West 306 352 10,000  Level Cleveland Center
Thu 04:05:00 PM 42.3400 -83.8663 285° West  Level FlightAware Approximate
Thu 04:05:26 PM 42.2281 -83.7072 299° West 347 399 11,200  Level Cleveland Center
Thu 04:06:00 PM 42.3612 -83.9728 285° West  Level FlightAware Approximate
Thu 04:06:27 PM 42.2750 -83.8217 299° West 348 400 12,000  Level Cleveland Center
Thu 04:07:26 PM 42.3197 -83.9336 298° West 365 420 11,900  Descending Cleveland Center
Thu 04:08:26 PM 42.3681 -84.0542 299° West 376 433 12,000 50 Climbing Cleveland Center
Thu 04:09:26 PM 42.4147 -84.1664 299° West 371 427 12,000 -50 Level Cleveland Center
Thu 04:10:26 PM 42.4547 -84.2869 294° West 354 407 11,900 -300 Descending Cleveland Center
Thu 04:11:26 PM 42.4967 -84.4050 296° West 348 400 11,400 -550 Descending Cleveland Center
Thu 04:12:26 PM 42.5386 -84.5231 296° West 348 400 10,800 -650 Descending Cleveland Center
Thu 04:13:26 PM 42.5783 -84.6411 295° West 348 400 10,100 -400 Descending Cleveland Center
Thu 04:14:26 PM 42.6164 -84.7425 297° West 348 400 10,000 -44 Descending Cleveland Center
Thu 04:15:42 PM 42.6622 -84.8678 296° West 315 362 10,000 -1,043 Level Chicago Center
Thu 04:16:44 PM 42.7053 -84.9631 302° West 254 292 7,600 -1,984 Descending Chicago Center
Thu 04:17:46 PM 42.7417 -85.0408 303° West 247 284 5,900 -1,632 Descending Chicago Center
Thu 04:18:49 PM 42.7761 -85.1158 302° West 239 275 4,200 -1,344 Descending Chicago Center
Thu 04:19:51 PM 42.8111 -85.1911 302° West 237 273 3,100 -581 Descending Chicago Center
Thu 04:20:53 PM 42.8414 -85.2583 302° West 225 259 3,000 -48 Descending Chicago Center
Thu 04:21:55 PM 42.8661 -85.3133 302° West 194 223 3,000  Level Chicago Center

Login

Don't have an account? Register now (free) for customized features, flight alerts, and more!